sensor_id;sensor_type;location;lat;lon;timestamp;temperature;humidity
56115;DHT22;41988;53.020;6.576;2022-08-21T00:02:27;15.20;99.90
56115;DHT22;41988;53.020;6.576;2022-08-21T00:07:56;15.20;99.90
56115;DHT22;41988;53.020;6.576;2022-08-21T00:10:41;15.10;99.90
56115;DHT22;41988;53.020;6.576;2022-08-21T00:13:26;15.20;99.90
56115;DHT22;41988;53.020;6.576;2022-08-21T00:16:10;15.40;99.90
56115;DHT22;41988;53.020;6.576;2022-08-21T00:21:39;15.10;99.90
56115;DHT22;41988;53.020;6.576;2022-08-21T00:24:24;15.40;99.90
56115;DHT22;41988;53.020;6.576;2022-08-21T00:27:08;15.10;99.90
56115;DHT22;41988;53.020;6.576;2022-08-21T00:29:52;14.60;99.90
56115;DHT22;41988;53.020;6.576;2022-08-21T00:32:39;14.80;99.90
56115;DHT22;41988;53.020;6.576;2022-08-21T00:35:29;14.90;99.90
56115;DHT22;41988;53.020;6.576;2022-08-21T00:38:13;15.00;99.90
56115;DHT22;41988;53.020;6.576;2022-08-21T00:41:04;15.30;99.90
56115;DHT22;41988;53.020;6.576;2022-08-21T00:46:36;15.00;99.90
56115;DHT22;41988;53.020;6.576;2022-08-21T00:49:21;14.90;99.90
56115;DHT22;41988;53.020;6.576;2022-08-21T00:54:20;14.60;99.90
56115;DHT22;41988;53.020;6.576;2022-08-21T00:57:16;14.40;99.90
56115;DHT22;41988;53.020;6.576;2022-08-21T01:00:08;14.50;99.90
56115;DHT22;41988;53.020;6.576;2022-08-21T01:02:53;14.70;99.90
56115;DHT22;41988;53.020;6.576;2022-08-21T01:05:37;14.50;99.90
56115;DHT22;41988;53.020;6.576;2022-08-21T01:08:22;14.50;99.90
56115;DHT22;41988;53.020;6.576;2022-08-21T01:11:07;14.50;99.90
56115;DHT22;41988;53.020;6.576;2022-08-21T01:13:52;14.70;99.90
56115;DHT22;41988;53.020;6.576;2022-08-21T01:16:36;14.80;99.90
56115;DHT22;41988;53.020;6.576;2022-08-21T01:19:22;14.40;99.90
56115;DHT22;41988;53.020;6.576;2022-08-21T01:24:50;14.10;99.90
56115;DHT22;41988;53.020;6.576;2022-08-21T01:27:35;14.40;99.90
56115;DHT22;41988;53.020;6.576;2022-08-21T01:30:24;14.50;99.90
56115;DHT22;41988;53.020;6.576;2022-08-21T01:33:08;14.10;99.90
56115;DHT22;41988;53.020;6.576;2022-08-21T01:35:53;15.00;99.90
56115;DHT22;41988;53.020;6.576;2022-08-21T01:38:37;14.10;99.90
56115;DHT22;41988;53.020;6.576;2022-08-21T01:41:22;14.20;99.90
56115;DHT22;41988;53.020;6.576;2022-08-21T01:44:06;13.90;99.90
56115;DHT22;41988;53.020;6.576;2022-08-21T01:46:51;13.90;99.90
56115;DHT22;41988;53.020;6.576;2022-08-21T01:49:37;14.00;99.90
56115;DHT22;41988;53.020;6.576;2022-08-21T01:55:12;13.70;99.90
56115;DHT22;41988;53.020;6.576;2022-08-21T01:57:58;14.00;99.90
56115;DHT22;41988;53.020;6.576;2022-08-21T02:00:42;13.60;99.90
56115;DHT22;41988;53.020;6.576;2022-08-21T02:03:28;13.70;99.90
56115;DHT22;41988;53.020;6.576;2022-08-21T02:06:14;13.70;99.90
56115;DHT22;41988;53.020;6.576;2022-08-21T02:09:04;14.00;99.90
56115;DHT22;41988;53.020;6.576;2022-08-21T02:11:48;13.90;99.90
56115;DHT22;41988;53.020;6.576;2022-08-21T02:14:32;14.40;99.90
56115;DHT22;41988;53.020;6.576;2022-08-21T02:17:16;13.90;99.90
56115;DHT22;41988;53.020;6.576;2022-08-21T02:20:01;14.30;99.90
56115;DHT22;41988;53.020;6.576;2022-08-21T02:22:45;14.40;99.90
56115;DHT22;41988;53.020;6.576;2022-08-21T02:25:30;14.20;99.90
56115;DHT22;41988;53.020;6.576;2022-08-21T02:28:15;14.00;99.90
56115;DHT22;41988;53.020;6.576;2022-08-21T02:31:00;14.50;99.90
56115;DHT22;41988;53.020;6.576;2022-08-21T02:33:45;13.80;99.90
56115;DHT22;41988;53.020;6.576;2022-08-21T02:36:29;14.20;99.90
56115;DHT22;41988;53.020;6.576;2022-08-21T02:39:14;14.00;99.90
56115;DHT22;41988;53.020;6.576;2022-08-21T02:41:58;13.80;99.90
56115;DHT22;41988;53.020;6.576;2022-08-21T02:44:42;14.10;99.90
56115;DHT22;41988;53.020;6.576;2022-08-21T02:47:26;14.10;99.90
56115;DHT22;41988;53.020;6.576;2022-08-21T02:50:10;14.00;99.90
56115;DHT22;41988;53.020;6.576;2022-08-21T02:52:54;14.10;99.90
56115;DHT22;41988;53.020;6.576;2022-08-21T02:55:38;13.90;99.90
56115;DHT22;41988;53.020;6.576;2022-08-21T02:58:32;14.20;99.90
56115;DHT22;41988;53.020;6.576;2022-08-21T03:04:02;14.10;99.90
56115;DHT22;41988;53.020;6.576;2022-08-21T03:06:46;14.30;99.90
56115;DHT22;41988;53.020;6.576;2022-08-21T03:14:27;14.20;99.90
56115;DHT22;41988;53.020;6.576;2022-08-21T03:17:11;13.80;99.90
56115;DHT22;41988;53.020;6.576;2022-08-21T03:19:56;14.10;99.90
56115;DHT22;41988;53.020;6.576;2022-08-21T03:22:41;14.00;99.90
56115;DHT22;41988;53.020;6.576;2022-08-21T03:25:26;14.10;99.90
56115;DHT22;41988;53.020;6.576;2022-08-21T03:28:14;14.10;99.90
56115;DHT22;41988;53.020;6.576;2022-08-21T03:30:59;14.00;99.90
56115;DHT22;41988;53.020;6.576;2022-08-21T03:33:44;14.00;99.90
56115;DHT22;41988;53.020;6.576;2022-08-21T03:36:29;13.90;99.90
56115;DHT22;41988;53.020;6.576;2022-08-21T03:39:13;14.00;99.90
56115;DHT22;41988;53.020;6.576;2022-08-21T03:41:57;14.10;99.90
56115;DHT22;41988;53.020;6.576;2022-08-21T03:44:43;14.00;99.90
56115;DHT22;41988;53.020;6.576;2022-08-21T03:47:27;14.00;99.90
56115;DHT22;41988;53.020;6.576;2022-08-21T03:50:11;14.80;99.90
56115;DHT22;41988;53.020;6.576;2022-08-21T03:52:56;14.00;99.90
56115;DHT22;41988;53.020;6.576;2022-08-21T03:55:40;14.00;99.90
56115;DHT22;41988;53.020;6.576;2022-08-21T03:58:27;14.00;99.90
56115;DHT22;41988;53.020;6.576;2022-08-21T04:01:11;14.10;99.90
56115;DHT22;41988;53.020;6.576;2022-08-21T04:03:56;14.10;99.90
56115;DHT22;41988;53.020;6.576;2022-08-21T04:06:40;13.90;99.90
56115;DHT22;41988;53.020;6.576;2022-08-21T04:09:26;14.10;99.90
56115;DHT22;41988;53.020;6.576;2022-08-21T04:12:10;14.10;99.90
56115;DHT22;41988;53.020;6.576;2022-08-21T04:14:54;14.10;99.90
56115;DHT22;41988;53.020;6.576;2022-08-21T04:17:39;14.10;99.90
56115;DHT22;41988;53.020;6.576;2022-08-21T04:20:23;14.10;99.90
56115;DHT22;41988;53.020;6.576;2022-08-21T04:23:09;14.10;99.90
56115;DHT22;41988;53.020;6.576;2022-08-21T04:25:55;14.20;99.90
56115;DHT22;41988;53.020;6.576;2022-08-21T04:28:39;14.20;99.90
56115;DHT22;41988;53.020;6.576;2022-08-21T04:31:24;14.20;99.90
56115;DHT22;41988;53.020;6.576;2022-08-21T04:34:09;14.20;99.90
56115;DHT22;41988;53.020;6.576;2022-08-21T04:36:53;14.10;99.90
56115;DHT22;41988;53.020;6.576;2022-08-21T04:39:37;14.20;99.90
56115;DHT22;41988;53.020;6.576;2022-08-21T04:42:21;14.20;99.90
56115;DHT22;41988;53.020;6.576;2022-08-21T04:45:06;14.20;99.90
56115;DHT22;41988;53.020;6.576;2022-08-21T04:47:52;14.20;99.90
56115;DHT22;41988;53.020;6.576;2022-08-21T04:57:21;14.20;99.90
56115;DHT22;41988;53.020;6.576;2022-08-21T04:59:50;14.20;99.90
56115;DHT22;41988;53.020;6.576;2022-08-21T05:02:36;14.20;99.90
56115;DHT22;41988;53.020;6.576;2022-08-21T05:05:20;14.20;99.90
56115;DHT22;41988;53.020;6.576;2022-08-21T05:08:05;14.20;99.90
56115;DHT22;41988;53.020;6.576;2022-08-21T05:10:51;14.30;99.90
56115;DHT22;41988;53.020;6.576;2022-08-21T05:13:36;14.30;99.90
56115;DHT22;41988;53.020;6.576;2022-08-21T05:16:20;14.30;99.90
56115;DHT22;41988;53.020;6.576;2022-08-21T05:19:08;14.30;99.90
56115;DHT22;41988;53.020;6.576;2022-08-21T05:21:52;14.30;99.90
56115;DHT22;41988;53.020;6.576;2022-08-21T05:24:36;14.30;99.90
56115;DHT22;41988;53.020;6.576;2022-08-21T05:27:21;14.40;99.90
56115;DHT22;41988;53.020;6.576;2022-08-21T05:30:07;15.50;99.90
56115;DHT22;41988;53.020;6.576;2022-08-21T05:32:56;14.50;99.90
56115;DHT22;41988;53.020;6.576;2022-08-21T05:35:41;14.60;99.90
56115;DHT22;41988;53.020;6.576;2022-08-21T05:38:26;14.70;99.90
56115;DHT22;41988;53.020;6.576;2022-08-21T05:41:12;14.70;99.90
56115;DHT22;41988;53.020;6.576;2022-08-21T05:43:56;14.80;99.90
56115;DHT22;41988;53.020;6.576;2022-08-21T05:46:40;14.70;99.90
56115;DHT22;41988;53.020;6.576;2022-08-21T05:49:24;14.70;99.90
56115;DHT22;41988;53.020;6.576;2022-08-21T05:52:08;14.90;99.90
56115;DHT22;41988;53.020;6.576;2022-08-21T05:54:53;15.30;99.90
56115;DHT22;41988;53.020;6.576;2022-08-21T05:57:37;15.30;99.90
56115;DHT22;41988;53.020;6.576;2022-08-21T06:00:25;15.10;99.90
56115;DHT22;41988;53.020;6.576;2022-08-21T06:03:18;15.30;99.90
56115;DHT22;41988;53.020;6.576;2022-08-21T06:06:04;15.50;99.90
56115;DHT22;41988;53.020;6.576;2022-08-21T06:08:48;15.50;99.90
56115;DHT22;41988;53.020;6.576;2022-08-21T06:11:33;15.60;99.90
56115;DHT22;41988;53.020;6.576;2022-08-21T06:14:17;15.80;99.90
56115;DHT22;41988;53.020;6.576;2022-08-21T06:17:09;15.90;99.90
56115;DHT22;41988;53.020;6.576;2022-08-21T06:19:54;16.00;99.90
56115;DHT22;41988;53.020;6.576;2022-08-21T06:22:39;16.10;99.90
56115;DHT22;41988;53.020;6.576;2022-08-21T06:25:23;16.20;99.90
56115;DHT22;41988;53.020;6.576;2022-08-21T06:28:09;16.30;99.90
56115;DHT22;41988;53.020;6.576;2022-08-21T06:30:54;16.50;99.90
56115;DHT22;41988;53.020;6.576;2022-08-21T06:33:38;16.60;99.90
56115;DHT22;41988;53.020;6.576;2022-08-21T06:36:23;16.70;99.90
56115;DHT22;41988;53.020;6.576;2022-08-21T06:39:07;16.80;99.90
56115;DHT22;41988;53.020;6.576;2022-08-21T06:41:51;16.80;99.90
56115;DHT22;41988;53.020;6.576;2022-08-21T06:44:36;17.00;99.90
56115;DHT22;41988;53.020;6.576;2022-08-21T06:47:20;17.10;99.90
56115;DHT22;41988;53.020;6.576;2022-08-21T06:50:05;17.20;99.90
56115;DHT22;41988;53.020;6.576;2022-08-21T06:52:59;17.30;99.90
56115;DHT22;41988;53.020;6.576;2022-08-21T06:55:44;17.40;99.90
56115;DHT22;41988;53.020;6.576;2022-08-21T06:58:28;17.60;99.90
56115;DHT22;41988;53.020;6.576;2022-08-21T07:01:13;17.70;99.90
56115;DHT22;41988;53.020;6.576;2022-08-21T07:03:57;17.80;99.90
56115;DHT22;41988;53.020;6.576;2022-08-21T07:06:41;17.90;99.90
56115;DHT22;41988;53.020;6.576;2022-08-21T07:09:25;18.10;99.90
56115;DHT22;41988;53.020;6.576;2022-08-21T07:12:10;18.30;99.90
56115;DHT22;41988;53.020;6.576;2022-08-21T07:14:54;18.40;99.90
56115;DHT22;41988;53.020;6.576;2022-08-21T07:17:38;18.50;99.90
56115;DHT22;41988;53.020;6.576;2022-08-21T07:20:22;18.70;99.90
56115;DHT22;41988;53.020;6.576;2022-08-21T07:23:13;19.70;99.90
56115;DHT22;41988;53.020;6.576;2022-08-21T07:25:59;20.90;99.90
56115;DHT22;41988;53.020;6.576;2022-08-21T07:28:44;21.60;99.90
56115;DHT22;41988;53.020;6.576;2022-08-21T07:31:28;22.00;99.90
56115;DHT22;41988;53.020;6.576;2022-08-21T07:34:13;22.10;99.90
56115;DHT22;41988;53.020;6.576;2022-08-21T07:36:57;22.10;99.90
56115;DHT22;41988;53.020;6.576;2022-08-21T07:39:42;22.00;99.90
56115;DHT22;41988;53.020;6.576;2022-08-21T07:42:28;21.90;99.90
56115;DHT22;41988;53.020;6.576;2022-08-21T07:45:12;21.80;99.90
56115;DHT22;41988;53.020;6.576;2022-08-21T07:47:56;21.80;99.90
56115;DHT22;41988;53.020;6.576;2022-08-21T07:50:41;21.80;99.90
56115;DHT22;41988;53.020;6.576;2022-08-21T07:53:26;21.90;99.90
56115;DHT22;41988;53.020;6.576;2022-08-21T07:56:10;22.00;99.90
56115;DHT22;41988;53.020;6.576;2022-08-21T07:58:55;22.20;99.90
56115;DHT22;41988;53.020;6.576;2022-08-21T08:01:41;22.30;99.90
56115;DHT22;41988;53.020;6.576;2022-08-21T08:04:26;22.90;99.90
56115;DHT22;41988;53.020;6.576;2022-08-21T08:07:10;23.60;99.90
56115;DHT22;41988;53.020;6.576;2022-08-21T08:09:55;24.10;99.90
56115;DHT22;41988;53.020;6.576;2022-08-21T08:12:41;24.20;99.40
56115;DHT22;41988;53.020;6.576;2022-08-21T08:15:27;24.50;99.00
56115;DHT22;41988;53.020;6.576;2022-08-21T08:18:11;24.60;98.40
56115;DHT22;41988;53.020;6.576;2022-08-21T08:20:56;24.40;97.90
56115;DHT22;41988;53.020;6.576;2022-08-21T08:23:40;24.10;98.50
56115;DHT22;41988;53.020;6.576;2022-08-21T08:26:24;23.90;98.70
56115;DHT22;41988;53.020;6.576;2022-08-21T08:29:09;23.80;98.60
56115;DHT22;41988;53.020;6.576;2022-08-21T08:31:53;23.60;98.30
56115;DHT22;41988;53.020;6.576;2022-08-21T08:34:39;23.30;98.70
56115;DHT22;41988;53.020;6.576;2022-08-21T08:37:23;23.20;99.30
56115;DHT22;41988;53.020;6.576;2022-08-21T08:43:04;23.00;99.20
56115;DHT22;41988;53.020;6.576;2022-08-21T08:45:51;22.90;99.70
56115;DHT22;41988;53.020;6.576;2022-08-21T08:54:35;23.10;99.90
56115;DHT22;41988;53.020;6.576;2022-08-21T08:57:23;23.10;99.00
56115;DHT22;41988;53.020;6.576;2022-08-21T09:00:11;23.10;99.70
56115;DHT22;41988;53.020;6.576;2022-08-21T09:02:58;23.20;99.80
56115;DHT22;41988;53.020;6.576;2022-08-21T09:08:54;23.40;99.20
56115;DHT22;41988;53.020;6.576;2022-08-21T09:15:00;23.60;98.60
56115;DHT22;41988;53.020;6.576;2022-08-21T09:18:19;23.70;99.00
56115;DHT22;41988;53.020;6.576;2022-08-21T09:21:24;23.80;99.10
56115;DHT22;41988;53.020;6.576;2022-08-21T09:27:05;24.10;98.90
56115;DHT22;41988;53.020;6.576;2022-08-21T09:29:54;24.10;98.70
56115;DHT22;41988;53.020;6.576;2022-08-21T09:32:39;24.20;98.80
56115;DHT22;41988;53.020;6.576;2022-08-21T09:35:33;24.20;98.50
56115;DHT22;41988;53.020;6.576;2022-08-21T09:38:37;23.80;99.90
56115;DHT22;41988;53.020;6.576;2022-08-21T09:41:31;24.00;99.90
56115;DHT22;41988;53.020;6.576;2022-08-21T09:44:28;24.00;99.90
56115;DHT22;41988;53.020;6.576;2022-08-21T09:50:08;23.90;99.50
56115;DHT22;41988;53.020;6.576;2022-08-21T09:52:58;23.50;99.90
56115;DHT22;41988;53.020;6.576;2022-08-21T09:55:51;24.90;99.90
56115;DHT22;41988;53.020;6.576;2022-08-21T10:01:48;25.30;97.70
56115;DHT22;41988;53.020;6.576;2022-08-21T10:04:33;25.40;97.90
56115;DHT22;41988;53.020;6.576;2022-08-21T10:07:21;25.50;97.90
56115;DHT22;41988;53.020;6.576;2022-08-21T10:10:24;25.60;96.80
56115;DHT22;41988;53.020;6.576;2022-08-21T10:17:03;25.70;99.40
56115;DHT22;41988;53.020;6.576;2022-08-21T10:25:57;25.10;96.50
56115;DHT22;41988;53.020;6.576;2022-08-21T10:32:04;24.70;96.80
56115;DHT22;41988;53.020;6.576;2022-08-21T10:40:37;24.90;99.60
56115;DHT22;41988;53.020;6.576;2022-08-21T10:44:01;24.90;98.40
56115;DHT22;41988;53.020;6.576;2022-08-21T10:56:30;25.30;95.40
56115;DHT22;41988;53.020;6.576;2022-08-21T11:02:33;25.10;94.90
56115;DHT22;41988;53.020;6.576;2022-08-21T11:05:29;25.20;95.90
56115;DHT22;41988;53.020;6.576;2022-08-21T11:08:21;25.70;95.90
56115;DHT22;41988;53.020;6.576;2022-08-21T11:14:24;26.40;96.10
56115;DHT22;41988;53.020;6.576;2022-08-21T11:17:12;27.00;92.10
56115;DHT22;41988;53.020;6.576;2022-08-21T11:22:58;27.00;88.60
56115;DHT22;41988;53.020;6.576;2022-08-21T11:25:49;26.60;89.40
56115;DHT22;41988;53.020;6.576;2022-08-21T11:28:48;26.20;89.30
56115;DHT22;41988;53.020;6.576;2022-08-21T11:35:10;25.20;91.00
56115;DHT22;41988;53.020;6.576;2022-08-21T11:44:22;24.50;96.40
56115;DHT22;41988;53.020;6.576;2022-08-21T11:47:33;24.10;97.00
56115;DHT22;41988;53.020;6.576;2022-08-21T11:50:27;24.30;97.40
56115;DHT22;41988;53.020;6.576;2022-08-21T11:56:19;23.40;99.60
56115;DHT22;41988;53.020;6.576;2022-08-21T11:59:14;23.70;94.40
56115;DHT22;41988;53.020;6.576;2022-08-21T12:02:31;23.60;95.50
56115;DHT22;41988;53.020;6.576;2022-08-21T12:05:36;23.40;99.60
56115;DHT22;41988;53.020;6.576;2022-08-21T12:08:34;23.90;99.30
56115;DHT22;41988;53.020;6.576;2022-08-21T12:19:35;24.00;96.30
56115;DHT22;41988;53.020;6.576;2022-08-21T12:25:08;24.00;99.00
56115;DHT22;41988;53.020;6.576;2022-08-21T12:28:06;23.80;96.90
56115;DHT22;41988;53.020;6.576;2022-08-21T12:33:40;23.50;99.30
56115;DHT22;41988;53.020;6.576;2022-08-21T12:36:35;23.90;97.30
56115;DHT22;41988;53.020;6.576;2022-08-21T12:39:26;23.90;97.40
56115;DHT22;41988;53.020;6.576;2022-08-21T12:42:41;23.80;99.40
56115;DHT22;41988;53.020;6.576;2022-08-21T12:45:37;23.50;98.10
56115;DHT22;41988;53.020;6.576;2022-08-21T12:48:28;23.50;96.80
56115;DHT22;41988;53.020;6.576;2022-08-21T12:51:17;23.40;96.20
56115;DHT22;41988;53.020;6.576;2022-08-21T12:54:01;23.30;98.20
56115;DHT22;41988;53.020;6.576;2022-08-21T12:57:02;23.20;96.80
56115;DHT22;41988;53.020;6.576;2022-08-21T12:59:52;23.00;96.60
56115;DHT22;41988;53.020;6.576;2022-08-21T13:02:39;22.90;97.10
56115;DHT22;41988;53.020;6.576;2022-08-21T13:05:36;22.80;97.30
56115;DHT22;41988;53.020;6.576;2022-08-21T13:08:22;22.80;98.70
56115;DHT22;41988;53.020;6.576;2022-08-21T13:11:10;22.90;99.60
56115;DHT22;41988;53.020;6.576;2022-08-21T13:13:54;23.10;98.90
56115;DHT22;41988;53.020;6.576;2022-08-21T13:19:23;23.30;98.20
56115;DHT22;41988;53.020;6.576;2022-08-21T13:22:14;23.40;97.90
56115;DHT22;41988;53.020;6.576;2022-08-21T13:24:58;23.40;97.30
56115;DHT22;41988;53.020;6.576;2022-08-21T13:27:44;23.50;97.20
56115;DHT22;41988;53.020;6.576;2022-08-21T13:30:32;23.50;97.20
56115;DHT22;41988;53.020;6.576;2022-08-21T13:33:18;23.50;96.10
56115;DHT22;41988;53.020;6.576;2022-08-21T13:38:51;23.50;96.00
56115;DHT22;41988;53.020;6.576;2022-08-21T13:41:40;23.60;95.90
56115;DHT22;41988;53.020;6.576;2022-08-21T13:44:54;23.70;96.90
56115;DHT22;41988;53.020;6.576;2022-08-21T13:47:39;24.10;96.40
56115;DHT22;41988;53.020;6.576;2022-08-21T13:50:25;24.50;96.90
56115;DHT22;41988;53.020;6.576;2022-08-21T13:53:23;24.90;97.60
56115;DHT22;41988;53.020;6.576;2022-08-21T13:58:54;25.40;93.30
56115;DHT22;41988;53.020;6.576;2022-08-21T14:01:49;25.40;93.60
56115;DHT22;41988;53.020;6.576;2022-08-21T14:04:42;25.60;91.80
56115;DHT22;41988;53.020;6.576;2022-08-21T14:07:35;25.80;92.30
56115;DHT22;41988;53.020;6.576;2022-08-21T14:10:22;25.90;91.60
56115;DHT22;41988;53.020;6.576;2022-08-21T14:13:07;26.00;90.60
56115;DHT22;41988;53.020;6.576;2022-08-21T14:15:57;26.00;90.40
56115;DHT22;41988;53.020;6.576;2022-08-21T14:18:48;25.70;88.80
56115;DHT22;41988;53.020;6.576;2022-08-21T14:21:35;25.80;89.50
56115;DHT22;41988;53.020;6.576;2022-08-21T14:27:08;25.80;87.70
56115;DHT22;41988;53.020;6.576;2022-08-21T14:29:58;25.80;87.30
56115;DHT22;41988;53.020;6.576;2022-08-21T14:32:44;25.80;88.30
56115;DHT22;41988;53.020;6.576;2022-08-21T14:35:30;25.80;87.40
56115;DHT22;41988;53.020;6.576;2022-08-21T14:38:17;25.80;87.10
56115;DHT22;41988;53.020;6.576;2022-08-21T14:41:20;25.80;86.80
56115;DHT22;41988;53.020;6.576;2022-08-21T14:44:07;25.80;85.30
56115;DHT22;41988;53.020;6.576;2022-08-21T14:55:08;25.60;87.40
56115;DHT22;41988;53.020;6.576;2022-08-21T15:03:26;25.00;87.10
56115;DHT22;41988;53.020;6.576;2022-08-21T15:08:55;25.30;88.30
56115;DHT22;41988;53.020;6.576;2022-08-21T15:14:26;24.80;87.00
56115;DHT22;41988;53.020;6.576;2022-08-21T15:28:11;24.30;90.60
56115;DHT22;41988;53.020;6.576;2022-08-21T15:44:42;24.50;91.50
56115;DHT22;41988;53.020;6.576;2022-08-21T15:47:32;24.10;91.70
56115;DHT22;41988;53.020;6.576;2022-08-21T15:50:18;24.20;89.30
56115;DHT22;41988;53.020;6.576;2022-08-21T16:01:17;24.00;90.30
56115;DHT22;41988;53.020;6.576;2022-08-21T16:04:02;24.10;90.10
56115;DHT22;41988;53.020;6.576;2022-08-21T16:09:32;23.90;88.60
56115;DHT22;41988;53.020;6.576;2022-08-21T16:12:22;24.00;87.30
56115;DHT22;41988;53.020;6.576;2022-08-21T16:15:11;24.10;91.20
56115;DHT22;41988;53.020;6.576;2022-08-21T16:20:41;23.90;88.90
56115;DHT22;41988;53.020;6.576;2022-08-21T16:26:12;23.90;87.60
56115;DHT22;41988;53.020;6.576;2022-08-21T16:28:58;23.80;87.80
56115;DHT22;41988;53.020;6.576;2022-08-21T16:37:14;23.50;89.20
56115;DHT22;41988;53.020;6.576;2022-08-21T16:39:59;23.40;90.20
56115;DHT22;41988;53.020;6.576;2022-08-21T16:56:29;22.90;91.90
56115;DHT22;41988;53.020;6.576;2022-08-21T16:59:13;22.90;92.50
56115;DHT22;41988;53.020;6.576;2022-08-21T17:07:28;22.80;93.40
56115;DHT22;41988;53.020;6.576;2022-08-21T17:10:13;22.60;92.80
56115;DHT22;41988;53.020;6.576;2022-08-21T17:12:58;22.60;94.10
56115;DHT22;41988;53.020;6.576;2022-08-21T17:15:44;22.60;95.40
56115;DHT22;41988;53.020;6.576;2022-08-21T17:18:28;21.90;95.00
56115;DHT22;41988;53.020;6.576;2022-08-21T17:21:13;22.40;94.50
56115;DHT22;41988;53.020;6.576;2022-08-21T17:26:43;22.30;95.10
56115;DHT22;41988;53.020;6.576;2022-08-21T17:29:33;22.20;95.40
56115;DHT22;41988;53.020;6.576;2022-08-21T17:32:18;22.20;96.80
56115;DHT22;41988;53.020;6.576;2022-08-21T17:35:03;22.40;96.20
56115;DHT22;41988;53.020;6.576;2022-08-21T17:40:31;22.10;98.50
56115;DHT22;41988;53.020;6.576;2022-08-21T17:48:45;21.90;97.80
56115;DHT22;41988;53.020;6.576;2022-08-21T17:51:29;21.70;98.80
56115;DHT22;41988;53.020;6.576;2022-08-21T18:10:46;21.20;99.30
56115;DHT22;41988;53.020;6.576;2022-08-21T18:13:35;21.20;98.00
56115;DHT22;41988;53.020;6.576;2022-08-21T18:16:21;20.90;98.10
56115;DHT22;41988;53.020;6.576;2022-08-21T18:19:11;20.70;98.40
56115;DHT22;41988;53.020;6.576;2022-08-21T18:21:58;20.90;98.30
56115;DHT22;41988;53.020;6.576;2022-08-21T18:24:42;21.60;99.00
56115;DHT22;41988;53.020;6.576;2022-08-21T18:30:15;20.70;97.70
56115;DHT22;41988;53.020;6.576;2022-08-21T18:32:59;20.70;99.90
56115;DHT22;41988;53.020;6.576;2022-08-21T18:35:44;20.50;99.70
56115;DHT22;41988;53.020;6.576;2022-08-21T18:46:49;20.30;98.80
56115;DHT22;41988;53.020;6.576;2022-08-21T18:55:03;20.20;99.90
56115;DHT22;41988;53.020;6.576;2022-08-21T18:57:48;20.10;99.90
56115;DHT22;41988;53.020;6.576;2022-08-21T19:00:36;19.90;99.90
56115;DHT22;41988;53.020;6.576;2022-08-21T19:03:23;20.00;99.90
56115;DHT22;41988;53.020;6.576;2022-08-21T19:06:07;19.90;99.90
56115;DHT22;41988;53.020;6.576;2022-08-21T19:08:51;20.00;99.90
56115;DHT22;41988;53.020;6.576;2022-08-21T19:11:38;19.90;99.90
56115;DHT22;41988;53.020;6.576;2022-08-21T19:17:08;19.80;99.90
56115;DHT22;41988;53.020;6.576;2022-08-21T19:19:55;19.70;99.90
56115;DHT22;41988;53.020;6.576;2022-08-21T19:22:41;19.70;99.90
56115;DHT22;41988;53.020;6.576;2022-08-21T19:25:26;19.80;99.90
56115;DHT22;41988;53.020;6.576;2022-08-21T19:28:17;19.50;99.90
56115;DHT22;41988;53.020;6.576;2022-08-21T19:31:16;19.40;99.90
56115;DHT22;41988;53.020;6.576;2022-08-21T19:34:14;19.10;99.90
56115;DHT22;41988;53.020;6.576;2022-08-21T19:37:02;19.40;99.90
56115;DHT22;41988;53.020;6.576;2022-08-21T19:39:46;19.10;99.90
56115;DHT22;41988;53.020;6.576;2022-08-21T19:42:31;18.90;99.90
56115;DHT22;41988;53.020;6.576;2022-08-21T19:45:17;19.10;99.90
56115;DHT22;41988;53.020;6.576;2022-08-21T19:48:03;18.90;99.90
56115;DHT22;41988;53.020;6.576;2022-08-21T19:50:47;19.20;99.90
56115;DHT22;41988;53.020;6.576;2022-08-21T19:53:32;18.70;99.90
56115;DHT22;41988;53.020;6.576;2022-08-21T19:56:20;18.60;99.90
56115;DHT22;41988;53.020;6.576;2022-08-21T19:59:05;18.50;99.90
56115;DHT22;41988;53.020;6.576;2022-08-21T20:01:50;18.70;99.90
56115;DHT22;41988;53.020;6.576;2022-08-21T20:04:34;18.50;99.90
56115;DHT22;41988;53.020;6.576;2022-08-21T20:07:19;18.30;99.90
56115;DHT22;41988;53.020;6.576;2022-08-21T20:10:04;18.40;99.90
56115;DHT22;41988;53.020;6.576;2022-08-21T20:12:49;18.30;99.90
56115;DHT22;41988;53.020;6.576;2022-08-21T20:15:34;18.30;99.90
56115;DHT22;41988;53.020;6.576;2022-08-21T20:18:19;18.40;99.90
56115;DHT22;41988;53.020;6.576;2022-08-21T20:21:05;18.00;99.90
56115;DHT22;41988;53.020;6.576;2022-08-21T20:23:49;17.90;99.90
56115;DHT22;41988;53.020;6.576;2022-08-21T20:26:33;18.00;99.90
56115;DHT22;41988;53.020;6.576;2022-08-21T20:29:18;18.30;99.90
56115;DHT22;41988;53.020;6.576;2022-08-21T20:32:04;18.90;99.90
56115;DHT22;41988;53.020;6.576;2022-08-21T20:34:49;18.20;99.90
56115;DHT22;41988;53.020;6.576;2022-08-21T20:37:34;18.00;99.90
56115;DHT22;41988;53.020;6.576;2022-08-21T20:40:18;17.70;99.90
56115;DHT22;41988;53.020;6.576;2022-08-21T20:43:03;17.80;99.90
56115;DHT22;41988;53.020;6.576;2022-08-21T20:45:48;17.70;99.90
56115;DHT22;41988;53.020;6.576;2022-08-21T20:48:37;17.40;99.90
56115;DHT22;41988;53.020;6.576;2022-08-21T20:54:29;17.60;99.90
56115;DHT22;41988;53.020;6.576;2022-08-21T21:00:04;17.70;99.90
56115;DHT22;41988;53.020;6.576;2022-08-21T21:06:03;17.50;99.90
56115;DHT22;41988;53.020;6.576;2022-08-21T21:08:57;17.60;99.90
56115;DHT22;41988;53.020;6.576;2022-08-21T21:11:55;17.50;99.90
56115;DHT22;41988;53.020;6.576;2022-08-21T21:14:45;17.70;99.90
56115;DHT22;41988;53.020;6.576;2022-08-21T21:17:41;17.50;99.90
56115;DHT22;41988;53.020;6.576;2022-08-21T21:20:56;18.50;99.90
56115;DHT22;41988;53.020;6.576;2022-08-21T21:23:53;17.20;99.90
56115;DHT22;41988;53.020;6.576;2022-08-21T21:26:51;17.60;99.90
56115;DHT22;41988;53.020;6.576;2022-08-21T21:29:44;17.60;99.90
56115;DHT22;41988;53.020;6.576;2022-08-21T21:32:29;17.30;99.90
56115;DHT22;41988;53.020;6.576;2022-08-21T21:35:16;18.00;99.90
56115;DHT22;41988;53.020;6.576;2022-08-21T21:44:14;17.10;99.90
56115;DHT22;41988;53.020;6.576;2022-08-21T21:50:18;17.20;99.90
56115;DHT22;41988;53.020;6.576;2022-08-21T21:59:30;17.20;99.90
56115;DHT22;41988;53.020;6.576;2022-08-21T22:02:45;17.20;99.90
56115;DHT22;41988;53.020;6.576;2022-08-21T22:14:13;17.10;99.90
56115;DHT22;41988;53.020;6.576;2022-08-21T22:17:01;17.40;99.90
56115;DHT22;41988;53.020;6.576;2022-08-21T22:19:50;16.70;99.90
56115;DHT22;41988;53.020;6.576;2022-08-21T22:22:37;16.90;99.90
56115;DHT22;41988;53.020;6.576;2022-08-21T22:25:29;16.80;99.90
56115;DHT22;41988;53.020;6.576;2022-08-21T22:28:20;17.00;99.90
56115;DHT22;41988;53.020;6.576;2022-08-21T22:31:23;16.50;99.90
56115;DHT22;41988;53.020;6.576;2022-08-21T22:34:10;17.50;99.90